sensor_id;sensor_type;location;lat;lon;timestamp;temperature;humidity
56725;DHT22;42608;52.776;6.968;2023-07-13T00:00:35;17.60;99.90
56725;DHT22;42608;52.776;6.968;2023-07-13T00:03:02;17.60;99.90
56725;DHT22;42608;52.776;6.968;2023-07-13T00:05:28;17.60;99.90
56725;DHT22;42608;52.776;6.968;2023-07-13T00:07:53;17.60;99.90
56725;DHT22;42608;52.776;6.968;2023-07-13T00:10:20;17.60;99.90
56725;DHT22;42608;52.776;6.968;2023-07-13T00:12:46;17.50;99.90
56725;DHT22;42608;52.776;6.968;2023-07-13T00:15:18;17.50;99.90
56725;DHT22;42608;52.776;6.968;2023-07-13T00:17:49;17.40;99.90
56725;DHT22;42608;52.776;6.968;2023-07-13T00:20:16;17.40;99.90
56725;DHT22;42608;52.776;6.968;2023-07-13T00:22:41;17.40;99.90
56725;DHT22;42608;52.776;6.968;2023-07-13T00:25:12;17.40;99.90
56725;DHT22;42608;52.776;6.968;2023-07-13T00:27:38;17.30;99.90
56725;DHT22;42608;52.776;6.968;2023-07-13T00:30:04;17.30;99.90
56725;DHT22;42608;52.776;6.968;2023-07-13T00:32:33;17.30;99.90
56725;DHT22;42608;52.776;6.968;2023-07-13T00:34:58;17.20;99.90
56725;DHT22;42608;52.776;6.968;2023-07-13T00:37:25;17.20;99.90
56725;DHT22;42608;52.776;6.968;2023-07-13T00:40:06;17.20;99.90
56725;DHT22;42608;52.776;6.968;2023-07-13T00:42:32;17.10;99.90
56725;DHT22;42608;52.776;6.968;2023-07-13T00:47:41;17.00;99.90
56725;DHT22;42608;52.776;6.968;2023-07-13T00:50:10;17.10;99.90
56725;DHT22;42608;52.776;6.968;2023-07-13T00:52:40;17.00;99.90
56725;DHT22;42608;52.776;6.968;2023-07-13T00:55:07;17.00;99.90
56725;DHT22;42608;52.776;6.968;2023-07-13T00:57:34;17.00;99.90
56725;DHT22;42608;52.776;6.968;2023-07-13T01:00:04;17.00;99.90
56725;DHT22;42608;52.776;6.968;2023-07-13T01:02:36;16.90;99.90
56725;DHT22;42608;52.776;6.968;2023-07-13T01:05:19;16.90;99.90
56725;DHT22;42608;52.776;6.968;2023-07-13T01:07:45;16.90;99.90
56725;DHT22;42608;52.776;6.968;2023-07-13T01:10:14;16.90;99.90
56725;DHT22;42608;52.776;6.968;2023-07-13T01:12:39;16.90;99.90
56725;DHT22;42608;52.776;6.968;2023-07-13T01:18:16;16.90;99.90
56725;DHT22;42608;52.776;6.968;2023-07-13T01:20:55;16.90;99.90
56725;DHT22;42608;52.776;6.968;2023-07-13T01:23:22;16.90;99.90
56725;DHT22;42608;52.776;6.968;2023-07-13T01:25:50;16.80;99.90
56725;DHT22;42608;52.776;6.968;2023-07-13T01:28:16;16.80;99.90
56725;DHT22;42608;52.776;6.968;2023-07-13T01:30:42;16.80;99.90
56725;DHT22;42608;52.776;6.968;2023-07-13T01:33:13;16.80;99.90
56725;DHT22;42608;52.776;6.968;2023-07-13T01:35:40;16.80;99.90
56725;DHT22;42608;52.776;6.968;2023-07-13T01:38:06;16.80;99.90
56725;DHT22;42608;52.776;6.968;2023-07-13T01:40:34;16.80;99.90
56725;DHT22;42608;52.776;6.968;2023-07-13T01:43:00;16.80;99.90
56725;DHT22;42608;52.776;6.968;2023-07-13T01:45:26;16.80;99.90
56725;DHT22;42608;52.776;6.968;2023-07-13T01:47:52;16.90;99.90
56725;DHT22;42608;52.776;6.968;2023-07-13T01:50:18;16.80;99.90
56725;DHT22;42608;52.776;6.968;2023-07-13T01:52:43;16.80;99.90
56725;DHT22;42608;52.776;6.968;2023-07-13T01:55:09;16.80;99.90
56725;DHT22;42608;52.776;6.968;2023-07-13T01:57:36;16.80;99.90
56725;DHT22;42608;52.776;6.968;2023-07-13T02:00:06;16.80;99.90
56725;DHT22;42608;52.776;6.968;2023-07-13T02:02:32;16.80;99.90
56725;DHT22;42608;52.776;6.968;2023-07-13T02:04:58;16.80;99.90
56725;DHT22;42608;52.776;6.968;2023-07-13T02:07:24;16.80;99.90
56725;DHT22;42608;52.776;6.968;2023-07-13T02:09:49;16.90;99.90
56725;DHT22;42608;52.776;6.968;2023-07-13T02:12:15;16.90;99.90
56725;DHT22;42608;52.776;6.968;2023-07-13T02:14:41;16.90;99.90
56725;DHT22;42608;52.776;6.968;2023-07-13T02:17:06;16.90;99.90
56725;DHT22;42608;52.776;6.968;2023-07-13T02:19:32;16.90;99.90
56725;DHT22;42608;52.776;6.968;2023-07-13T02:21:58;16.90;99.90
56725;DHT22;42608;52.776;6.968;2023-07-13T02:24:24;16.90;99.90
56725;DHT22;42608;52.776;6.968;2023-07-13T02:26:49;16.90;99.90
56725;DHT22;42608;52.776;6.968;2023-07-13T02:29:15;16.90;99.90
56725;DHT22;42608;52.776;6.968;2023-07-13T02:31:41;16.90;99.90
56725;DHT22;42608;52.776;6.968;2023-07-13T02:34:07;16.90;99.90
56725;DHT22;42608;52.776;6.968;2023-07-13T02:36:32;16.90;99.90
56725;DHT22;42608;52.776;6.968;2023-07-13T02:39:02;16.90;99.90
56725;DHT22;42608;52.776;6.968;2023-07-13T02:41:28;16.90;99.90
56725;DHT22;42608;52.776;6.968;2023-07-13T02:43:54;16.90;99.90
56725;DHT22;42608;52.776;6.968;2023-07-13T02:46:22;16.90;99.90
56725;DHT22;42608;52.776;6.968;2023-07-13T02:48:49;16.90;99.90
56725;DHT22;42608;52.776;6.968;2023-07-13T02:51:15;16.90;99.90
56725;DHT22;42608;52.776;6.968;2023-07-13T02:53:40;16.90;99.90
56725;DHT22;42608;52.776;6.968;2023-07-13T02:56:06;16.90;99.90
56725;DHT22;42608;52.776;6.968;2023-07-13T02:58:32;16.90;99.90
56725;DHT22;42608;52.776;6.968;2023-07-13T03:01:09;16.90;99.90
56725;DHT22;42608;52.776;6.968;2023-07-13T03:03:36;16.90;99.90
56725;DHT22;42608;52.776;6.968;2023-07-13T03:06:03;16.90;99.90
56725;DHT22;42608;52.776;6.968;2023-07-13T03:08:30;16.90;99.90
56725;DHT22;42608;52.776;6.968;2023-07-13T03:11:12;16.90;99.90
56725;DHT22;42608;52.776;6.968;2023-07-13T03:13:39;16.90;99.90
56725;DHT22;42608;52.776;6.968;2023-07-13T03:16:05;16.90;99.90
56725;DHT22;42608;52.776;6.968;2023-07-13T03:18:31;16.90;99.90
56725;DHT22;42608;52.776;6.968;2023-07-13T03:20:57;16.90;99.90
56725;DHT22;42608;52.776;6.968;2023-07-13T03:23:23;16.80;99.90
56725;DHT22;42608;52.776;6.968;2023-07-13T03:26:00;16.80;99.90
56725;DHT22;42608;52.776;6.968;2023-07-13T03:28:26;16.80;99.90
56725;DHT22;42608;52.776;6.968;2023-07-13T03:31:09;16.80;99.90
56725;DHT22;42608;52.776;6.968;2023-07-13T03:33:35;16.80;99.90
56725;DHT22;42608;52.776;6.968;2023-07-13T03:36:03;16.80;99.90
56725;DHT22;42608;52.776;6.968;2023-07-13T03:38:29;16.80;99.90
56725;DHT22;42608;52.776;6.968;2023-07-13T03:40:54;16.80;99.90
56725;DHT22;42608;52.776;6.968;2023-07-13T03:43:20;16.80;99.90
56725;DHT22;42608;52.776;6.968;2023-07-13T03:45:46;16.80;99.90
56725;DHT22;42608;52.776;6.968;2023-07-13T03:48:15;16.80;99.90
56725;DHT22;42608;52.776;6.968;2023-07-13T03:50:41;16.80;99.90
56725;DHT22;42608;52.776;6.968;2023-07-13T03:53:07;16.80;99.90
56725;DHT22;42608;52.776;6.968;2023-07-13T03:55:32;16.70;99.90
56725;DHT22;42608;52.776;6.968;2023-07-13T03:58:00;16.70;99.90
56725;DHT22;42608;52.776;6.968;2023-07-13T04:00:26;16.70;99.90
56725;DHT22;42608;52.776;6.968;2023-07-13T04:02:52;16.70;99.90
56725;DHT22;42608;52.776;6.968;2023-07-13T04:05:18;16.70;99.90
56725;DHT22;42608;52.776;6.968;2023-07-13T04:07:46;16.70;99.90
56725;DHT22;42608;52.776;6.968;2023-07-13T04:10:12;16.60;99.90
56725;DHT22;42608;52.776;6.968;2023-07-13T04:12:38;16.60;99.90
56725;DHT22;42608;52.776;6.968;2023-07-13T04:15:04;16.60;99.90
56725;DHT22;42608;52.776;6.968;2023-07-13T04:17:30;16.50;99.90
56725;DHT22;42608;52.776;6.968;2023-07-13T04:19:55;16.50;99.90
56725;DHT22;42608;52.776;6.968;2023-07-13T04:22:21;16.50;99.90
56725;DHT22;42608;52.776;6.968;2023-07-13T04:24:47;16.50;99.90
56725;DHT22;42608;52.776;6.968;2023-07-13T04:27:12;16.50;99.90
56725;DHT22;42608;52.776;6.968;2023-07-13T04:29:38;16.50;99.90
56725;DHT22;42608;52.776;6.968;2023-07-13T04:32:04;16.50;99.90
56725;DHT22;42608;52.776;6.968;2023-07-13T04:34:30;16.50;99.90
56725;DHT22;42608;52.776;6.968;2023-07-13T04:36:55;16.50;99.90
56725;DHT22;42608;52.776;6.968;2023-07-13T04:39:21;16.50;99.90
56725;DHT22;42608;52.776;6.968;2023-07-13T04:41:47;16.50;99.90
56725;DHT22;42608;52.776;6.968;2023-07-13T04:44:12;16.50;99.90
56725;DHT22;42608;52.776;6.968;2023-07-13T04:46:38;16.50;99.90
56725;DHT22;42608;52.776;6.968;2023-07-13T04:49:04;16.50;99.90
56725;DHT22;42608;52.776;6.968;2023-07-13T04:51:29;16.40;99.90
56725;DHT22;42608;52.776;6.968;2023-07-13T04:53:55;16.50;99.90
56725;DHT22;42608;52.776;6.968;2023-07-13T04:56:21;16.40;99.90
56725;DHT22;42608;52.776;6.968;2023-07-13T04:58:47;16.40;99.90
56725;DHT22;42608;52.776;6.968;2023-07-13T05:01:12;16.40;99.90
56725;DHT22;42608;52.776;6.968;2023-07-13T05:03:39;16.40;99.90
56725;DHT22;42608;52.776;6.968;2023-07-13T05:06:08;16.40;99.90
56725;DHT22;42608;52.776;6.968;2023-07-13T05:08:35;16.40;99.90
56725;DHT22;42608;52.776;6.968;2023-07-13T05:11:03;16.40;99.90
56725;DHT22;42608;52.776;6.968;2023-07-13T05:13:29;16.40;99.90
56725;DHT22;42608;52.776;6.968;2023-07-13T05:16:00;16.40;99.90
56725;DHT22;42608;52.776;6.968;2023-07-13T05:18:26;16.40;99.90
56725;DHT22;42608;52.776;6.968;2023-07-13T05:21:03;16.40;99.90
56725;DHT22;42608;52.776;6.968;2023-07-13T05:23:30;16.50;99.90
56725;DHT22;42608;52.776;6.968;2023-07-13T05:25:57;16.40;99.90
56725;DHT22;42608;52.776;6.968;2023-07-13T05:28:23;16.40;99.90
56725;DHT22;42608;52.776;6.968;2023-07-13T05:30:49;16.40;99.90
56725;DHT22;42608;52.776;6.968;2023-07-13T05:33:15;16.40;99.90
56725;DHT22;42608;52.776;6.968;2023-07-13T05:35:41;16.50;99.90
56725;DHT22;42608;52.776;6.968;2023-07-13T05:38:07;16.50;99.90
56725;DHT22;42608;52.776;6.968;2023-07-13T05:40:33;16.50;99.90
56725;DHT22;42608;52.776;6.968;2023-07-13T05:42:58;16.50;99.90
56725;DHT22;42608;52.776;6.968;2023-07-13T05:45:24;16.50;99.90
56725;DHT22;42608;52.776;6.968;2023-07-13T05:47:51;16.50;99.90
56725;DHT22;42608;52.776;6.968;2023-07-13T05:50:17;16.50;99.90
56725;DHT22;42608;52.776;6.968;2023-07-13T05:52:46;16.60;99.90
56725;DHT22;42608;52.776;6.968;2023-07-13T05:55:11;16.60;99.90
56725;DHT22;42608;52.776;6.968;2023-07-13T05:57:37;16.60;99.90
56725;DHT22;42608;52.776;6.968;2023-07-13T06:00:03;16.60;99.90
56725;DHT22;42608;52.776;6.968;2023-07-13T06:02:29;16.70;99.90
56725;DHT22;42608;52.776;6.968;2023-07-13T06:04:54;16.70;99.90
56725;DHT22;42608;52.776;6.968;2023-07-13T06:07:20;16.70;99.90
56725;DHT22;42608;52.776;6.968;2023-07-13T06:09:47;16.80;99.90
56725;DHT22;42608;52.776;6.968;2023-07-13T06:12:13;16.80;99.90
56725;DHT22;42608;52.776;6.968;2023-07-13T06:14:39;16.80;99.90
56725;DHT22;42608;52.776;6.968;2023-07-13T06:17:05;16.90;99.90
56725;DHT22;42608;52.776;6.968;2023-07-13T06:19:31;16.90;99.90
56725;DHT22;42608;52.776;6.968;2023-07-13T06:21:57;16.90;99.90
56725;DHT22;42608;52.776;6.968;2023-07-13T06:24:24;17.00;99.90
56725;DHT22;42608;52.776;6.968;2023-07-13T06:26:50;17.00;99.90
56725;DHT22;42608;52.776;6.968;2023-07-13T06:29:15;17.00;99.90
56725;DHT22;42608;52.776;6.968;2023-07-13T06:31:41;17.00;99.90
56725;DHT22;42608;52.776;6.968;2023-07-13T06:34:07;17.10;99.90
56725;DHT22;42608;52.776;6.968;2023-07-13T06:36:33;17.20;99.90
56725;DHT22;42608;52.776;6.968;2023-07-13T06:38:59;17.20;99.90
56725;DHT22;42608;52.776;6.968;2023-07-13T06:41:24;17.30;99.90
56725;DHT22;42608;52.776;6.968;2023-07-13T06:43:52;17.30;99.90
56725;DHT22;42608;52.776;6.968;2023-07-13T06:46:23;17.30;99.90
56725;DHT22;42608;52.776;6.968;2023-07-13T06:48:49;17.30;99.90
56725;DHT22;42608;52.776;6.968;2023-07-13T06:51:20;17.40;99.90
56725;DHT22;42608;52.776;6.968;2023-07-13T06:53:46;17.40;99.90
56725;DHT22;42608;52.776;6.968;2023-07-13T06:56:12;17.50;99.90
56725;DHT22;42608;52.776;6.968;2023-07-13T06:58:38;17.50;99.90
56725;DHT22;42608;52.776;6.968;2023-07-13T07:01:10;17.60;99.90
56725;DHT22;42608;52.776;6.968;2023-07-13T07:03:35;17.60;99.90
56725;DHT22;42608;52.776;6.968;2023-07-13T07:06:35;17.70;99.90
56725;DHT22;42608;52.776;6.968;2023-07-13T07:08:54;17.70;99.90
56725;DHT22;42608;52.776;6.968;2023-07-13T07:11:23;17.80;99.90
56725;DHT22;42608;52.776;6.968;2023-07-13T07:13:50;17.90;99.90
56725;DHT22;42608;52.776;6.968;2023-07-13T07:16:16;18.00;99.90
56725;DHT22;42608;52.776;6.968;2023-07-13T07:18:45;18.00;99.90
56725;DHT22;42608;52.776;6.968;2023-07-13T07:21:12;18.10;99.90
56725;DHT22;42608;52.776;6.968;2023-07-13T07:23:37;18.20;99.90
56725;DHT22;42608;52.776;6.968;2023-07-13T07:26:03;18.30;99.90
56725;DHT22;42608;52.776;6.968;2023-07-13T07:28:29;18.40;99.90
56725;DHT22;42608;52.776;6.968;2023-07-13T07:30:57;18.40;99.90
56725;DHT22;42608;52.776;6.968;2023-07-13T07:33:26;18.50;99.90
56725;DHT22;42608;52.776;6.968;2023-07-13T07:35:52;18.50;99.90
56725;DHT22;42608;52.776;6.968;2023-07-13T07:38:18;18.50;99.90
56725;DHT22;42608;52.776;6.968;2023-07-13T07:40:44;18.60;99.90
56725;DHT22;42608;52.776;6.968;2023-07-13T07:43:11;18.70;99.90
56725;DHT22;42608;52.776;6.968;2023-07-13T07:45:38;18.70;99.90
56725;DHT22;42608;52.776;6.968;2023-07-13T07:48:06;18.70;99.90
56725;DHT22;42608;52.776;6.968;2023-07-13T07:50:32;18.80;99.90
56725;DHT22;42608;52.776;6.968;2023-07-13T07:52:59;18.80;99.90
56725;DHT22;42608;52.776;6.968;2023-07-13T07:55:25;18.70;99.90
56725;DHT22;42608;52.776;6.968;2023-07-13T07:57:55;18.70;99.90
56725;DHT22;42608;52.776;6.968;2023-07-13T08:00:22;18.70;99.90
56725;DHT22;42608;52.776;6.968;2023-07-13T08:02:48;18.70;99.90
56725;DHT22;42608;52.776;6.968;2023-07-13T08:05:14;18.60;99.90
56725;DHT22;42608;52.776;6.968;2023-07-13T08:07:40;18.70;99.90
56725;DHT22;42608;52.776;6.968;2023-07-13T08:10:07;18.60;99.90
56725;DHT22;42608;52.776;6.968;2023-07-13T08:12:37;18.70;99.90
56725;DHT22;42608;52.776;6.968;2023-07-13T08:15:03;18.70;99.90
56725;DHT22;42608;52.776;6.968;2023-07-13T08:17:29;18.80;99.90
56725;DHT22;42608;52.776;6.968;2023-07-13T08:19:55;18.80;99.90
56725;DHT22;42608;52.776;6.968;2023-07-13T08:22:20;18.90;99.90
56725;DHT22;42608;52.776;6.968;2023-07-13T08:24:56;18.90;99.90
56725;DHT22;42608;52.776;6.968;2023-07-13T08:27:23;19.00;99.90
56725;DHT22;42608;52.776;6.968;2023-07-13T08:29:50;19.00;99.90
56725;DHT22;42608;52.776;6.968;2023-07-13T08:32:16;19.10;99.90
56725;DHT22;42608;52.776;6.968;2023-07-13T08:34:43;19.10;99.90
56725;DHT22;42608;52.776;6.968;2023-07-13T08:37:09;19.20;99.90
56725;DHT22;42608;52.776;6.968;2023-07-13T08:39:37;19.30;99.90
56725;DHT22;42608;52.776;6.968;2023-07-13T08:42:39;19.40;99.90
56725;DHT22;42608;52.776;6.968;2023-07-13T08:48:27;19.50;99.90
56725;DHT22;42608;52.776;6.968;2023-07-13T08:51:00;19.50;99.90
56725;DHT22;42608;52.776;6.968;2023-07-13T08:53:38;19.40;99.90
56725;DHT22;42608;52.776;6.968;2023-07-13T08:56:07;19.60;99.90
56725;DHT22;42608;52.776;6.968;2023-07-13T08:58:36;19.60;99.90
56725;DHT22;42608;52.776;6.968;2023-07-13T09:04:09;19.70;99.90
56725;DHT22;42608;52.776;6.968;2023-07-13T09:06:39;19.80;99.90
56725;DHT22;42608;52.776;6.968;2023-07-13T09:09:16;19.90;99.90
56725;DHT22;42608;52.776;6.968;2023-07-13T09:12:25;20.00;99.90
56725;DHT22;42608;52.776;6.968;2023-07-13T09:14:55;20.10;99.90
56725;DHT22;42608;52.776;6.968;2023-07-13T09:17:32;20.10;99.90
56725;DHT22;42608;52.776;6.968;2023-07-13T09:20:04;20.20;99.90
56725;DHT22;42608;52.776;6.968;2023-07-13T09:22:36;20.20;99.90
56725;DHT22;42608;52.776;6.968;2023-07-13T09:25:30;20.10;99.90
56725;DHT22;42608;52.776;6.968;2023-07-13T09:28:22;20.10;99.90
56725;DHT22;42608;52.776;6.968;2023-07-13T09:33:22;19.80;99.90
56725;DHT22;42608;52.776;6.968;2023-07-13T09:35:48;19.50;99.90
56725;DHT22;42608;52.776;6.968;2023-07-13T09:38:19;19.10;99.90
56725;DHT22;42608;52.776;6.968;2023-07-13T09:41:02;18.70;99.90
56725;DHT22;42608;52.776;6.968;2023-07-13T09:43:31;18.30;99.90
56725;DHT22;42608;52.776;6.968;2023-07-13T09:45:57;17.90;99.90
56725;DHT22;42608;52.776;6.968;2023-07-13T09:48:26;17.40;99.90
56725;DHT22;42608;52.776;6.968;2023-07-13T09:51:13;17.00;99.90
56725;DHT22;42608;52.776;6.968;2023-07-13T09:53:42;16.60;99.90
56725;DHT22;42608;52.776;6.968;2023-07-13T09:56:20;16.50;99.90
56725;DHT22;42608;52.776;6.968;2023-07-13T09:58:46;16.20;99.90
56725;DHT22;42608;52.776;6.968;2023-07-13T10:01:12;16.00;99.90
56725;DHT22;42608;52.776;6.968;2023-07-13T10:03:37;16.00;99.90
56725;DHT22;42608;52.776;6.968;2023-07-13T10:06:14;16.10;99.90
56725;DHT22;42608;52.776;6.968;2023-07-13T10:08:40;16.10;99.90
56725;DHT22;42608;52.776;6.968;2023-07-13T10:11:11;16.10;99.90
56725;DHT22;42608;52.776;6.968;2023-07-13T10:13:44;16.20;99.90
56725;DHT22;42608;52.776;6.968;2023-07-13T10:16:10;16.30;99.90
56725;DHT22;42608;52.776;6.968;2023-07-13T10:18:45;16.30;99.90
56725;DHT22;42608;52.776;6.968;2023-07-13T10:21:17;16.30;99.90
56725;DHT22;42608;52.776;6.968;2023-07-13T10:23:57;16.40;99.90
56725;DHT22;42608;52.776;6.968;2023-07-13T10:26:29;16.40;99.90
56725;DHT22;42608;52.776;6.968;2023-07-13T10:29:00;16.40;99.90
56725;DHT22;42608;52.776;6.968;2023-07-13T10:31:27;16.50;99.90
56725;DHT22;42608;52.776;6.968;2023-07-13T10:33:53;16.50;99.90
56725;DHT22;42608;52.776;6.968;2023-07-13T10:36:30;16.60;99.90
56725;DHT22;42608;52.776;6.968;2023-07-13T10:38:58;16.60;99.90
56725;DHT22;42608;52.776;6.968;2023-07-13T10:41:27;16.70;99.90
56725;DHT22;42608;52.776;6.968;2023-07-13T10:43:56;16.80;99.90
56725;DHT22;42608;52.776;6.968;2023-07-13T10:46:26;16.80;99.90
56725;DHT22;42608;52.776;6.968;2023-07-13T10:48:58;16.90;99.90
56725;DHT22;42608;52.776;6.968;2023-07-13T10:51:25;17.00;99.90
56725;DHT22;42608;52.776;6.968;2023-07-13T10:54:31;17.00;99.90
56725;DHT22;42608;52.776;6.968;2023-07-13T10:57:20;17.10;99.90
56725;DHT22;42608;52.776;6.968;2023-07-13T11:00:14;17.20;99.90
56725;DHT22;42608;52.776;6.968;2023-07-13T11:02:40;17.30;99.90
56725;DHT22;42608;52.776;6.968;2023-07-13T11:05:30;17.40;99.90
56725;DHT22;42608;52.776;6.968;2023-07-13T11:08:23;17.60;99.90
56725;DHT22;42608;52.776;6.968;2023-07-13T11:11:00;17.70;99.90
56725;DHT22;42608;52.776;6.968;2023-07-13T11:13:36;17.80;99.90
56725;DHT22;42608;52.776;6.968;2023-07-13T11:16:57;17.90;99.90
56725;DHT22;42608;52.776;6.968;2023-07-13T11:21:32;18.00;99.90
56725;DHT22;42608;52.776;6.968;2023-07-13T11:26:41;18.20;99.90
56725;DHT22;42608;52.776;6.968;2023-07-13T11:31:53;18.30;99.90
56725;DHT22;42608;52.776;6.968;2023-07-13T11:34:33;18.30;99.90
56725;DHT22;42608;52.776;6.968;2023-07-13T11:37:03;18.30;99.90
56725;DHT22;42608;52.776;6.968;2023-07-13T11:39:35;18.20;99.90
56725;DHT22;42608;52.776;6.968;2023-07-13T11:42:05;18.20;99.90
56725;DHT22;42608;52.776;6.968;2023-07-13T11:44:33;18.10;99.90
56725;DHT22;42608;52.776;6.968;2023-07-13T11:47:00;18.00;99.90
56725;DHT22;42608;52.776;6.968;2023-07-13T11:49:45;17.80;99.90
56725;DHT22;42608;52.776;6.968;2023-07-13T11:52:22;17.70;99.90
56725;DHT22;42608;52.776;6.968;2023-07-13T11:54:51;17.70;99.90
56725;DHT22;42608;52.776;6.968;2023-07-13T11:57:33;17.60;99.90
56725;DHT22;42608;52.776;6.968;2023-07-13T12:00:04;17.60;99.90
56725;DHT22;42608;52.776;6.968;2023-07-13T12:02:34;17.70;99.90
56725;DHT22;42608;52.776;6.968;2023-07-13T12:05:03;17.90;99.90
56725;DHT22;42608;52.776;6.968;2023-07-13T12:07:32;18.10;99.90
56725;DHT22;42608;52.776;6.968;2023-07-13T12:10:03;18.20;99.90
56725;DHT22;42608;52.776;6.968;2023-07-13T12:12:36;18.30;99.90
56725;DHT22;42608;52.776;6.968;2023-07-13T12:15:12;18.50;99.90
56725;DHT22;42608;52.776;6.968;2023-07-13T12:17:38;18.60;99.90
56725;DHT22;42608;52.776;6.968;2023-07-13T12:20:21;18.80;99.90
56725;DHT22;42608;52.776;6.968;2023-07-13T12:22:50;19.00;99.90
56725;DHT22;42608;52.776;6.968;2023-07-13T12:25:28;19.20;99.90
56725;DHT22;42608;52.776;6.968;2023-07-13T12:27:56;19.30;99.90
56725;DHT22;42608;52.776;6.968;2023-07-13T12:30:31;19.50;99.90
56725;DHT22;42608;52.776;6.968;2023-07-13T12:33:21;19.60;99.90
56725;DHT22;42608;52.776;6.968;2023-07-13T12:35:53;19.80;99.90
56725;DHT22;42608;52.776;6.968;2023-07-13T12:38:19;19.90;99.90
56725;DHT22;42608;52.776;6.968;2023-07-13T12:40:49;20.00;99.90
56725;DHT22;42608;52.776;6.968;2023-07-13T12:43:20;20.10;99.90
56725;DHT22;42608;52.776;6.968;2023-07-13T12:48:25;20.20;99.90
56725;DHT22;42608;52.776;6.968;2023-07-13T12:50:53;20.20;99.90
56725;DHT22;42608;52.776;6.968;2023-07-13T12:53:28;20.20;99.90
56725;DHT22;42608;52.776;6.968;2023-07-13T12:55:58;20.10;99.90
56725;DHT22;42608;52.776;6.968;2023-07-13T12:58:40;20.00;99.90
56725;DHT22;42608;52.776;6.968;2023-07-13T13:01:13;19.90;99.90
56725;DHT22;42608;52.776;6.968;2023-07-13T13:03:45;19.80;99.90
56725;DHT22;42608;52.776;6.968;2023-07-13T13:06:25;19.80;99.90
56725;DHT22;42608;52.776;6.968;2023-07-13T13:08:53;19.70;99.90
56725;DHT22;42608;52.776;6.968;2023-07-13T13:11:21;19.50;99.90
56725;DHT22;42608;52.776;6.968;2023-07-13T13:13:48;19.20;99.90
56725;DHT22;42608;52.776;6.968;2023-07-13T13:16:21;19.00;99.90
56725;DHT22;42608;52.776;6.968;2023-07-13T13:18:48;18.90;99.90
56725;DHT22;42608;52.776;6.968;2023-07-13T13:21:15;18.80;99.90
56725;DHT22;42608;52.776;6.968;2023-07-13T13:23:44;18.90;99.90
56725;DHT22;42608;52.776;6.968;2023-07-13T13:26:14;18.90;99.90
56725;DHT22;42608;52.776;6.968;2023-07-13T13:28:42;19.00;99.90
56725;DHT22;42608;52.776;6.968;2023-07-13T13:31:08;19.20;99.90
56725;DHT22;42608;52.776;6.968;2023-07-13T13:33:38;19.40;99.90
56725;DHT22;42608;52.776;6.968;2023-07-13T13:36:14;19.50;99.90
56725;DHT22;42608;52.776;6.968;2023-07-13T13:38:41;19.50;99.90
56725;DHT22;42608;52.776;6.968;2023-07-13T13:41:11;19.50;99.90
56725;DHT22;42608;52.776;6.968;2023-07-13T13:43:39;19.50;99.90
56725;DHT22;42608;52.776;6.968;2023-07-13T13:46:18;19.70;99.90
56725;DHT22;42608;52.776;6.968;2023-07-13T13:48:44;19.90;99.90
56725;DHT22;42608;52.776;6.968;2023-07-13T13:51:21;20.10;99.90
56725;DHT22;42608;52.776;6.968;2023-07-13T13:53:48;20.30;99.90
56725;DHT22;42608;52.776;6.968;2023-07-13T13:56:15;20.40;99.90
56725;DHT22;42608;52.776;6.968;2023-07-13T13:58:41;20.50;99.90
56725;DHT22;42608;52.776;6.968;2023-07-13T14:01:17;20.50;99.90
56725;DHT22;42608;52.776;6.968;2023-07-13T14:03:43;20.50;99.90
56725;DHT22;42608;52.776;6.968;2023-07-13T14:06:14;20.40;99.90
56725;DHT22;42608;52.776;6.968;2023-07-13T14:08:40;20.40;99.90
56725;DHT22;42608;52.776;6.968;2023-07-13T14:11:14;20.50;99.90
56725;DHT22;42608;52.776;6.968;2023-07-13T14:13:48;20.70;99.90
56725;DHT22;42608;52.776;6.968;2023-07-13T14:16:20;20.70;99.90
56725;DHT22;42608;52.776;6.968;2023-07-13T14:18:47;20.70;99.90
56725;DHT22;42608;52.776;6.968;2023-07-13T14:21:18;20.70;99.90
56725;DHT22;42608;52.776;6.968;2023-07-13T14:23:45;20.80;99.90
56725;DHT22;42608;52.776;6.968;2023-07-13T14:26:13;21.10;99.90
56725;DHT22;42608;52.776;6.968;2023-07-13T14:28:50;21.30;99.90
56725;DHT22;42608;52.776;6.968;2023-07-13T14:31:17;21.40;99.90
56725;DHT22;42608;52.776;6.968;2023-07-13T14:33:44;21.60;99.90
56725;DHT22;42608;52.776;6.968;2023-07-13T14:36:30;21.60;99.80
56725;DHT22;42608;52.776;6.968;2023-07-13T14:38:58;21.70;98.90
56725;DHT22;42608;52.776;6.968;2023-07-13T14:41:24;21.80;99.90
56725;DHT22;42608;52.776;6.968;2023-07-13T14:43:50;21.80;99.60
56725;DHT22;42608;52.776;6.968;2023-07-13T14:46:28;21.80;98.10
56725;DHT22;42608;52.776;6.968;2023-07-13T14:51:49;21.90;97.20
56725;DHT22;42608;52.776;6.968;2023-07-13T14:54:15;22.00;97.70
56725;DHT22;42608;52.776;6.968;2023-07-13T14:56:43;22.00;98.40
56725;DHT22;42608;52.776;6.968;2023-07-13T14:59:10;22.10;98.20
56725;DHT22;42608;52.776;6.968;2023-07-13T15:01:39;22.20;97.70
56725;DHT22;42608;52.776;6.968;2023-07-13T15:04:06;22.20;97.50
56725;DHT22;42608;52.776;6.968;2023-07-13T15:06:58;22.20;96.80
56725;DHT22;42608;52.776;6.968;2023-07-13T15:09:25;22.20;95.80
56725;DHT22;42608;52.776;6.968;2023-07-13T15:11:56;22.20;95.80
56725;DHT22;42608;52.776;6.968;2023-07-13T15:14:22;22.20;95.40
56725;DHT22;42608;52.776;6.968;2023-07-13T15:16:52;22.30;95.80
56725;DHT22;42608;52.776;6.968;2023-07-13T15:19:19;22.30;94.80
56725;DHT22;42608;52.776;6.968;2023-07-13T15:21:47;22.40;94.80
56725;DHT22;42608;52.776;6.968;2023-07-13T15:24:16;22.40;93.60
56725;DHT22;42608;52.776;6.968;2023-07-13T15:26:42;22.40;92.90
56725;DHT22;42608;52.776;6.968;2023-07-13T15:29:12;22.40;93.00
56725;DHT22;42608;52.776;6.968;2023-07-13T15:31:41;22.40;94.10
56725;DHT22;42608;52.776;6.968;2023-07-13T15:34:16;22.40;94.40
56725;DHT22;42608;52.776;6.968;2023-07-13T15:36:43;22.50;92.40
56725;DHT22;42608;52.776;6.968;2023-07-13T15:39:14;22.50;92.80
56725;DHT22;42608;52.776;6.968;2023-07-13T15:41:44;22.50;92.50
56725;DHT22;42608;52.776;6.968;2023-07-13T15:44:29;22.50;92.70
56725;DHT22;42608;52.776;6.968;2023-07-13T15:46:58;22.50;93.00
56725;DHT22;42608;52.776;6.968;2023-07-13T15:49:26;22.40;91.90
56725;DHT22;42608;52.776;6.968;2023-07-13T15:51:51;22.40;91.70
56725;DHT22;42608;52.776;6.968;2023-07-13T15:54:19;22.40;91.60
56725;DHT22;42608;52.776;6.968;2023-07-13T15:56:50;22.50;92.60
56725;DHT22;42608;52.776;6.968;2023-07-13T15:59:17;22.50;92.90
56725;DHT22;42608;52.776;6.968;2023-07-13T16:01:43;22.50;92.70
56725;DHT22;42608;52.776;6.968;2023-07-13T16:04:12;22.40;92.40
56725;DHT22;42608;52.776;6.968;2023-07-13T16:06:41;22.40;93.10
56725;DHT22;42608;52.776;6.968;2023-07-13T16:09:13;22.40;93.70
56725;DHT22;42608;52.776;6.968;2023-07-13T16:11:42;22.50;92.30